Flaxcombe, Canada
Current Conditions -  °F | °C
As of 9:00 AM on Friday 19 Dec 2014 (Local Time) from CYKY Reporting Station
Scattered Clouds Scattered Clouds  
Wind Chill:   Ceiling: Unl
Heat Index:   Visibility: 15mi
Dew Point:   Wind: 3mph
Humidity: 85%   Direction: 70°ENE
Pressure: 29.86"   Gusts: NA
Location:  51.47°N, 109.6°W
Report Text: CYKY 191500Z 07003KT 15SM SCT260 M15/M17 A2986 RMK CI3 SLP164
Loading
Personal Weather Stations






























Interactive Weather Map New forecast layout! Learn more

10-Day Weather Forecast

Advertisements
Track Severe Weather on mobile